Delaware, Arkansas
Current Conditions -  °F | °C
As of 11:53 AM on Thursday 27 Nov 2014 (Local Time) from KRUE Reporting Station
Clear Clear  
Wind Chill: 40°   Ceiling: Unl
Heat Index: 43°   Visibility: 10mi
Dew Point: 25°   Wind: 5mph
Humidity: 49%   Direction: NA
Pressure: 30.52"   Gusts: NA
Location:  35.28°N, 93.3°W
Report Text: KRUE 271753Z AUTO VRB04KT 10SM CLR 06/M04 A3052 RMK AO2 SLP332 T00611039 10067 21022 58007
Loading
Personal Weather Stations






























Interactive Weather Map New forecast layout! Learn more

10-Day Weather Forecast

Advertisements
Track Severe Weather on mobile